sensor_id;sensor_type;location;lat;lon;timestamp;pressure;altitude;pressure_sealevel;temperature;humidity
37648;BME280;23490;53.656;10.076;2023-04-30T00:02:00;99331.28;;;-145.95;88.55
37648;BME280;23490;53.656;10.076;2023-04-30T00:04:26;99277.56;;;-145.95;88.67
37648;BME280;23490;53.656;10.076;2023-04-30T00:06:51;99351.91;;;-145.95;89.14
37648;BME280;23490;53.656;10.076;2023-04-30T00:09:16;99296.16;;;-145.95;88.34
37648;BME280;23490;53.656;10.076;2023-04-30T00:11:43;99306.50;;;-145.95;87.63
37648;BME280;23490;53.656;10.076;2023-04-30T00:14:08;99318.88;;;-145.95;88.07
37648;BME280;23490;53.656;10.076;2023-04-30T00:16:34;99341.59;;;-145.95;88.23
37648;BME280;23490;53.656;10.076;2023-04-30T00:19:00;99285.84;;;-145.95;88.05
37648;BME280;23490;53.656;10.076;2023-04-30T00:21:26;99327.13;;;-145.95;88.87
37648;BME280;23490;53.656;10.076;2023-04-30T00:23:51;99314.75;;;-145.95;89.54
37648;BME280;23490;53.656;10.076;2023-04-30T00:26:18;99339.53;;;-145.95;88.81
37648;BME280;23490;53.656;10.076;2023-04-30T00:28:44;99360.19;;;-145.95;88.16
37648;BME280;23490;53.656;10.076;2023-04-30T00:31:09;99327.13;;;-145.95;88.74
37648;BME280;23490;53.656;10.076;2023-04-30T00:33:35;99349.84;;;-145.95;89.61
37648;BME280;23490;53.656;10.076;2023-04-30T00:36:01;99339.53;;;-145.95;88.90
37648;BME280;23490;53.656;10.076;2023-04-30T00:38:27;99329.19;;;-145.95;89.04
37648;BME280;23490;53.656;10.076;2023-04-30T00:40:53;99343.66;;;-145.95;89.54
37648;BME280;23490;53.656;10.076;2023-04-30T00:43:19;99351.91;;;-145.95;88.96
37648;BME280;23490;53.656;10.076;2023-04-30T00:45:44;99335.41;;;-145.95;89.26
37648;BME280;23490;53.656;10.076;2023-04-30T00:48:09;99306.50;;;-145.95;89.12
37648;BME280;23490;53.656;10.076;2023-04-30T00:50:35;99370.50;;;-145.95;89.42
37648;BME280;23490;53.656;10.076;2023-04-30T00:53:01;99337.47;;;-145.95;89.61
37648;BME280;23490;53.656;10.076;2023-04-30T00:55:26;99393.22;;;-145.95;91.10
37648;BME280;23490;53.656;10.076;2023-04-30T00:57:52;99358.13;;;-145.95;90.47
37648;BME280;23490;53.656;10.076;2023-04-30T01:00:22;99389.09;;;-145.95;91.02
37648;BME280;23490;53.656;10.076;2023-04-30T01:02:47;99356.06;;;-145.95;92.18
37648;BME280;23490;53.656;10.076;2023-04-30T01:05:13;99345.72;;;-145.95;91.82
37648;BME280;23490;53.656;10.076;2023-04-30T01:07:39;99424.19;;;-145.95;91.19
37648;BME280;23490;53.656;10.076;2023-04-30T01:10:11;99409.75;;;-145.95;92.05
37648;BME280;23490;53.656;10.076;2023-04-30T01:13:07;99356.06;;;-145.95;92.38
37648;BME280;23490;53.656;10.076;2023-04-30T01:15:42;99387.03;;;-145.95;91.84
37648;BME280;23490;53.656;10.076;2023-04-30T01:20:47;99401.50;;;-145.95;92.05
37648;BME280;23490;53.656;10.076;2023-04-30T01:29:33;99397.34;;;-145.95;93.91
37648;BME280;23490;53.656;10.076;2023-04-30T01:32:00;99413.88;;;-145.95;93.43
37648;BME280;23490;53.656;10.076;2023-04-30T01:34:26;99405.63;;;-145.95;93.91
37648;BME280;23490;53.656;10.076;2023-04-30T01:37:06;99409.75;;;-145.95;93.80
37648;BME280;23490;53.656;10.076;2023-04-30T01:39:49;99397.34;;;-145.95;93.45
37648;BME280;23490;53.656;10.076;2023-04-30T01:42:21;99430.41;;;-145.95;93.67
37648;BME280;23490;53.656;10.076;2023-04-30T01:47:53;99378.78;;;-145.95;92.94
37648;BME280;23490;53.656;10.076;2023-04-30T01:50:43;99384.97;;;-145.95;93.43
37648;BME280;23490;53.656;10.076;2023-04-30T01:53:23;99415.94;;;-145.95;93.48
37648;BME280;23490;53.656;10.076;2023-04-30T01:56:01;99422.13;;;-145.95;93.85
37648;BME280;23490;53.656;10.076;2023-04-30T01:58:27;99430.41;;;-145.95;93.78
37648;BME280;23490;53.656;10.076;2023-04-30T02:00:53;99446.91;;;-145.95;94.06
37648;BME280;23490;53.656;10.076;2023-04-30T02:03:19;99451.06;;;-145.95;93.95
37648;BME280;23490;53.656;10.076;2023-04-30T02:05:46;99393.22;;;-145.95;93.67
37648;BME280;23490;53.656;10.076;2023-04-30T02:08:11;99434.53;;;-145.95;93.85
37648;BME280;23490;53.656;10.076;2023-04-30T02:10:36;99413.88;;;-145.95;93.33
37648;BME280;23490;53.656;10.076;2023-04-30T02:13:03;99438.66;;;-145.95;93.88
37648;BME280;23490;53.656;10.076;2023-04-30T02:15:28;99442.78;;;-145.95;94.05
37648;BME280;23490;53.656;10.076;2023-04-30T02:17:54;99459.31;;;-145.95;94.66
37648;BME280;23490;53.656;10.076;2023-04-30T02:20:21;99463.44;;;-145.95;94.44
37648;BME280;23490;53.656;10.076;2023-04-30T02:22:46;99438.66;;;-145.95;94.73
37648;BME280;23490;53.656;10.076;2023-04-30T02:25:12;99442.78;;;-145.95;95.02
37648;BME280;23490;53.656;10.076;2023-04-30T02:27:39;99405.63;;;-145.95;93.60
37648;BME280;23490;53.656;10.076;2023-04-30T02:30:06;99475.84;;;-145.95;93.60
37648;BME280;23490;53.656;10.076;2023-04-30T02:32:32;99442.78;;;-145.95;94.61
37648;BME280;23490;53.656;10.076;2023-04-30T02:34:58;99459.31;;;-145.95;94.24
37648;BME280;23490;53.656;10.076;2023-04-30T02:37:23;99471.69;;;-145.95;95.41
37648;BME280;23490;53.656;10.076;2023-04-30T02:39:49;99451.06;;;-145.95;95.45
37648;BME280;23490;53.656;10.076;2023-04-30T02:42:15;99475.84;;;-145.95;95.84
37648;BME280;23490;53.656;10.076;2023-04-30T02:44:40;99442.78;;;-145.95;95.31
37648;BME280;23490;53.656;10.076;2023-04-30T02:47:05;99424.19;;;-145.95;95.19
37648;BME280;23490;53.656;10.076;2023-04-30T02:49:31;99461.38;;;-145.95;95.11
37648;BME280;23490;53.656;10.076;2023-04-30T02:51:56;99438.66;;;-145.95;94.68
37648;BME280;23490;53.656;10.076;2023-04-30T02:54:21;99426.28;;;-145.95;95.07
37648;BME280;23490;53.656;10.076;2023-04-30T02:56:47;99475.84;;;-145.95;94.61
37648;BME280;23490;53.656;10.076;2023-04-30T02:59:13;99471.69;;;-145.95;94.79
37648;BME280;23490;53.656;10.076;2023-04-30T03:01:40;99453.13;;;-145.95;95.89
37648;BME280;23490;53.656;10.076;2023-04-30T03:04:05;99463.44;;;-145.95;96.69
37648;BME280;23490;53.656;10.076;2023-04-30T03:06:31;99471.69;;;-145.95;96.42
37648;BME280;23490;53.656;10.076;2023-04-30T03:08:57;99436.59;;;-145.95;95.29
37648;BME280;23490;53.656;10.076;2023-04-30T03:11:24;99490.28;;;-145.95;95.66
37648;BME280;23490;53.656;10.076;2023-04-30T03:13:49;99455.19;;;-145.95;94.86
37648;BME280;23490;53.656;10.076;2023-04-30T03:16:17;99451.06;;;-145.95;94.49
37648;BME280;23490;53.656;10.076;2023-04-30T03:18:47;99479.97;;;-145.95;95.24
37648;BME280;23490;53.656;10.076;2023-04-30T03:21:13;99496.47;;;-145.95;95.48
37648;BME280;23490;53.656;10.076;2023-04-30T03:23:38;99442.78;;;-145.95;95.62
37648;BME280;23490;53.656;10.076;2023-04-30T03:26:05;99513.00;;;-145.95;95.68
37648;BME280;23490;53.656;10.076;2023-04-30T03:28:30;99482.03;;;-145.95;95.41
37648;BME280;23490;53.656;10.076;2023-04-30T03:30:55;99521.28;;;-145.95;95.95
37648;BME280;23490;53.656;10.076;2023-04-30T03:33:21;99488.22;;;-145.95;96.20
37648;BME280;23490;53.656;10.076;2023-04-30T03:35:46;99471.69;;;-145.95;96.33
37648;BME280;23490;53.656;10.076;2023-04-30T03:38:13;99484.09;;;-145.95;96.16
37648;BME280;23490;53.656;10.076;2023-04-30T03:40:39;99500.63;;;-145.95;96.35
37648;BME280;23490;53.656;10.076;2023-04-30T03:43:05;99488.22;;;-145.95;96.04
37648;BME280;23490;53.656;10.076;2023-04-30T03:45:32;99525.41;;;-145.95;96.04
37648;BME280;23490;53.656;10.076;2023-04-30T03:47:57;99496.47;;;-145.95;95.90
37648;BME280;23490;53.656;10.076;2023-04-30T03:50:23;99500.63;;;-145.95;95.36
37648;BME280;23490;53.656;10.076;2023-04-30T03:52:48;99508.88;;;-145.95;95.94
37648;BME280;23490;53.656;10.076;2023-04-30T03:55:14;99496.47;;;-145.95;95.89
37648;BME280;23490;53.656;10.076;2023-04-30T03:57:39;99525.41;;;-145.95;96.21
37648;BME280;23490;53.656;10.076;2023-04-30T04:00:05;99492.34;;;-145.95;96.05
37648;BME280;23490;53.656;10.076;2023-04-30T04:02:35;99510.94;;;-145.95;95.71
37648;BME280;23490;53.656;10.076;2023-04-30T04:05:02;99463.44;;;-145.95;95.81
37648;BME280;23490;53.656;10.076;2023-04-30T04:07:28;99504.75;;;-145.95;95.92
37648;BME280;23490;53.656;10.076;2023-04-30T04:09:53;99502.69;;;-145.95;96.53
37648;BME280;23490;53.656;10.076;2023-04-30T04:12:20;99496.47;;;-145.95;96.50
37648;BME280;23490;53.656;10.076;2023-04-30T04:14:45;99519.22;;;-145.95;97.55
37648;BME280;23490;53.656;10.076;2023-04-30T04:17:11;99471.69;;;-145.95;97.04
37648;BME280;23490;53.656;10.076;2023-04-30T04:19:38;99513.00;;;-145.95;95.70
37648;BME280;23490;53.656;10.076;2023-04-30T04:22:03;99537.78;;;-145.95;95.96
37648;BME280;23490;53.656;10.076;2023-04-30T04:24:30;99496.47;;;-145.95;97.10
37648;BME280;23490;53.656;10.076;2023-04-30T04:26:55;99533.66;;;-145.95;97.19
37648;BME280;23490;53.656;10.076;2023-04-30T04:29:22;99504.75;;;-145.95;97.66
37648;BME280;23490;53.656;10.076;2023-04-30T04:31:48;99517.13;;;-145.95;97.30
37648;BME280;23490;53.656;10.076;2023-04-30T04:34:15;99475.84;;;-145.95;97.58
37648;BME280;23490;53.656;10.076;2023-04-30T04:36:41;99504.75;;;-145.95;97.14
37648;BME280;23490;53.656;10.076;2023-04-30T04:39:07;99484.09;;;-145.95;97.49
37648;BME280;23490;53.656;10.076;2023-04-30T04:41:33;99513.00;;;-145.95;96.32
37648;BME280;23490;53.656;10.076;2023-04-30T04:43:59;99488.22;;;-145.95;96.87
37648;BME280;23490;53.656;10.076;2023-04-30T04:46:26;99477.91;;;-145.95;98.32
37648;BME280;23490;53.656;10.076;2023-04-30T04:48:52;99455.19;;;-145.95;98.12
37648;BME280;23490;53.656;10.076;2023-04-30T04:51:18;99484.09;;;-145.95;98.45
37648;BME280;23490;53.656;10.076;2023-04-30T04:53:43;99484.09;;;-145.95;99.38
37648;BME280;23490;53.656;10.076;2023-04-30T04:56:10;99492.34;;;-145.95;98.95
37648;BME280;23490;53.656;10.076;2023-04-30T04:58:37;99475.84;;;-145.95;99.75
37648;BME280;23490;53.656;10.076;2023-04-30T05:01:02;99492.34;;;-145.95;99.90
37648;BME280;23490;53.656;10.076;2023-04-30T05:03:31;99496.47;;;-145.95;100.00
37648;BME280;23490;53.656;10.076;2023-04-30T05:05:57;99451.06;;;-145.95;100.00
37648;BME280;23490;53.656;10.076;2023-04-30T05:08:22;99442.78;;;-145.95;99.87
37648;BME280;23490;53.656;10.076;2023-04-30T05:10:48;99459.31;;;-145.95;99.96
37648;BME280;23490;53.656;10.076;2023-04-30T05:13:13;99428.34;;;-145.95;98.69
37648;BME280;23490;53.656;10.076;2023-04-30T05:15:38;99426.28;;;-145.95;97.74
37648;BME280;23490;53.656;10.076;2023-04-30T05:18:04;99424.19;;;-145.95;96.74
37648;BME280;23490;53.656;10.076;2023-04-30T05:20:29;99451.06;;;-145.95;96.08
37648;BME280;23490;53.656;10.076;2023-04-30T05:22:56;99399.41;;;-145.95;95.63
37648;BME280;23490;53.656;10.076;2023-04-30T05:25:22;99397.34;;;-145.95;95.29
37648;BME280;23490;53.656;10.076;2023-04-30T05:27:49;99362.25;;;-145.95;94.73
37648;BME280;23490;53.656;10.076;2023-04-30T05:30:16;99378.78;;;-145.95;94.98
37648;BME280;23490;53.656;10.076;2023-04-30T05:32:41;99389.09;;;-145.95;94.35
37648;BME280;23490;53.656;10.076;2023-04-30T05:35:07;99409.75;;;-145.95;93.27
37648;BME280;23490;53.656;10.076;2023-04-30T05:37:36;99345.72;;;-145.95;92.88
37648;BME280;23490;53.656;10.076;2023-04-30T05:40:02;99380.84;;;-145.95;92.28
37648;BME280;23490;53.656;10.076;2023-04-30T05:42:27;99376.69;;;-145.95;90.51
37648;BME280;23490;53.656;10.076;2023-04-30T05:44:53;99323.00;;;-145.95;89.98
37648;BME280;23490;53.656;10.076;2023-04-30T05:47:21;99351.91;;;-145.95;89.58
37648;BME280;23490;53.656;10.076;2023-04-30T05:49:47;99335.41;;;-145.95;89.30
37648;BME280;23490;53.656;10.076;2023-04-30T05:52:13;99351.91;;;-145.95;90.69
37648;BME280;23490;53.656;10.076;2023-04-30T05:54:39;99337.47;;;-145.95;89.44
37648;BME280;23490;53.656;10.076;2023-04-30T05:57:05;99300.28;;;-145.95;89.64
37648;BME280;23490;53.656;10.076;2023-04-30T05:59:30;99331.28;;;-145.95;88.31
37648;BME280;23490;53.656;10.076;2023-04-30T06:01:56;99261.06;;;-145.95;88.28
37648;BME280;23490;53.656;10.076;2023-04-30T06:04:22;99300.28;;;-145.95;86.06
37648;BME280;23490;53.656;10.076;2023-04-30T06:06:48;99244.53;;;-145.95;86.02
37648;BME280;23490;53.656;10.076;2023-04-30T06:09:14;99277.56;;;-145.95;84.01
37648;BME280;23490;53.656;10.076;2023-04-30T06:11:40;99252.78;;;-145.95;82.72
37648;BME280;23490;53.656;10.076;2023-04-30T06:14:05;99252.78;;;-145.95;81.39
37648;BME280;23490;53.656;10.076;2023-04-30T06:16:32;99228.00;;;-145.95;81.77
37648;BME280;23490;53.656;10.076;2023-04-30T06:18:57;99232.16;;;-145.95;82.58
37648;BME280;23490;53.656;10.076;2023-04-30T06:21:23;99170.19;;;-145.95;80.98
37648;BME280;23490;53.656;10.076;2023-04-30T06:23:50;99203.22;;;-145.95;78.95
37648;BME280;23490;53.656;10.076;2023-04-30T06:26:20;99184.66;;;-145.95;77.26
37648;BME280;23490;53.656;10.076;2023-04-30T06:28:48;99174.31;;;-145.95;75.77
37648;BME280;23490;53.656;10.076;2023-04-30T06:31:13;99166.06;;;-145.95;74.13
37648;BME280;23490;53.656;10.076;2023-04-30T06:33:39;99145.41;;;-145.95;76.18
37648;BME280;23490;53.656;10.076;2023-04-30T06:36:05;99139.22;;;-145.95;74.71
37648;BME280;23490;53.656;10.076;2023-04-30T06:38:32;99110.31;;;-145.95;75.51
37648;BME280;23490;53.656;10.076;2023-04-30T06:40:57;99133.03;;;-145.95;68.93
37648;BME280;23490;53.656;10.076;2023-04-30T06:43:24;99108.25;;;-145.95;68.48
37648;BME280;23490;53.656;10.076;2023-04-30T06:45:49;99112.38;;;-145.95;66.38
37648;BME280;23490;53.656;10.076;2023-04-30T06:48:16;99071.06;;;-145.95;64.67
37648;BME280;23490;53.656;10.076;2023-04-30T06:50:41;99071.06;;;-145.95;65.64
37648;BME280;23490;53.656;10.076;2023-04-30T06:53:13;99021.50;;;-145.95;63.91
37648;BME280;23490;53.656;10.076;2023-04-30T06:55:44;99069.00;;;-145.95;60.80
37648;BME280;23490;53.656;10.076;2023-04-30T06:58:11;99056.63;;;-145.95;62.47
37648;BME280;23490;53.656;10.076;2023-04-30T07:00:36;99050.41;;;-145.95;62.05
37648;BME280;23490;53.656;10.076;2023-04-30T07:03:03;99046.28;;;-145.95;61.78
37648;BME280;23490;53.656;10.076;2023-04-30T07:05:29;98963.69;;;-145.95;62.64
37648;BME280;23490;53.656;10.076;2023-04-30T07:07:55;99054.56;;;-145.95;59.63
37648;BME280;23490;53.656;10.076;2023-04-30T07:10:25;99064.88;;;-145.95;59.97
37648;BME280;23490;53.656;10.076;2023-04-30T07:12:52;99079.34;;;-145.95;60.61
37648;BME280;23490;53.656;10.076;2023-04-30T07:15:18;99062.81;;;-145.95;60.62
37648;BME280;23490;53.656;10.076;2023-04-30T07:17:44;99071.06;;;-145.95;60.68
37648;BME280;23490;53.656;10.076;2023-04-30T07:20:10;99071.06;;;-145.95;60.09
37648;BME280;23490;53.656;10.076;2023-04-30T07:22:36;99011.19;;;-145.95;59.09
37648;BME280;23490;53.656;10.076;2023-04-30T07:25:02;98980.22;;;-145.95;58.64
37648;BME280;23490;53.656;10.076;2023-04-30T07:27:27;98984.34;;;-145.95;56.06
37648;BME280;23490;53.656;10.076;2023-04-30T07:29:53;98980.22;;;-145.95;57.32
37648;BME280;23490;53.656;10.076;2023-04-30T07:32:20;99013.25;;;-145.95;56.51
37648;BME280;23490;53.656;10.076;2023-04-30T07:34:45;98976.09;;;-145.95;57.21
37648;BME280;23490;53.656;10.076;2023-04-30T07:37:10;99002.94;;;-145.95;55.76
37648;BME280;23490;53.656;10.076;2023-04-30T07:39:36;98988.47;;;-145.95;56.61
37648;BME280;23490;53.656;10.076;2023-04-30T07:42:02;98955.44;;;-145.95;56.37
37648;BME280;23490;53.656;10.076;2023-04-30T07:44:29;98955.44;;;-145.95;55.55
37648;BME280;23490;53.656;10.076;2023-04-30T07:46:54;98994.66;;;-145.95;55.88
37648;BME280;23490;53.656;10.076;2023-04-30T07:49:20;98994.66;;;-145.95;56.92
37648;BME280;23490;53.656;10.076;2023-04-30T07:51:46;98963.69;;;-145.95;56.38
37648;BME280;23490;53.656;10.076;2023-04-30T07:54:12;98988.47;;;-145.95;55.35
37648;BME280;23490;53.656;10.076;2023-04-30T07:56:37;98965.75;;;-145.95;55.42
37648;BME280;23490;53.656;10.076;2023-04-30T07:59:02;98926.53;;;-145.95;55.09
37648;BME280;23490;53.656;10.076;2023-04-30T08:01:28;98856.31;;;-145.95;53.92
37648;BME280;23490;53.656;10.076;2023-04-30T08:03:53;98835.66;;;-145.95;54.26
37648;BME280;23490;53.656;10.076;2023-04-30T08:06:25;98843.94;;;-145.95;52.18
37648;BME280;23490;53.656;10.076;2023-04-30T08:08:52;98804.69;;;-145.95;52.88
37648;BME280;23490;53.656;10.076;2023-04-30T08:11:17;98794.38;;;-145.95;54.31
37648;BME280;23490;53.656;10.076;2023-04-30T08:13:43;98848.06;;;-145.95;52.76
37648;BME280;23490;53.656;10.076;2023-04-30T08:16:09;98765.47;;;-145.95;52.77
37648;BME280;23490;53.656;10.076;2023-04-30T08:18:38;98674.59;;;-145.95;50.98
37648;BME280;23490;53.656;10.076;2023-04-30T08:21:04;98682.88;;;-145.95;52.01
37648;BME280;23490;53.656;10.076;2023-04-30T08:23:29;98610.59;;;-145.95;47.95
37648;BME280;23490;53.656;10.076;2023-04-30T08:25:55;98558.97;;;-145.95;47.96
37648;BME280;23490;53.656;10.076;2023-04-30T08:28:20;98554.84;;;-145.95;47.17
37648;BME280;23490;53.656;10.076;2023-04-30T08:30:46;98538.34;;;-145.95;46.49
37648;BME280;23490;53.656;10.076;2023-04-30T08:33:12;98666.34;;;-145.95;48.33
37648;BME280;23490;53.656;10.076;2023-04-30T08:35:38;98658.09;;;-145.95;48.63
37648;BME280;23490;53.656;10.076;2023-04-30T08:38:03;98587.88;;;-145.95;46.79
37648;BME280;23490;53.656;10.076;2023-04-30T08:40:29;98447.50;;;-145.95;49.46
37648;BME280;23490;53.656;10.076;2023-04-30T08:43:07;98261.69;;;-145.95;44.80
37648;BME280;23490;53.656;10.076;2023-04-30T08:45:38;98397.94;;;-145.95;46.11
37648;BME280;23490;53.656;10.076;2023-04-30T08:48:05;98501.19;;;-145.95;46.15
37648;BME280;23490;53.656;10.076;2023-04-30T08:50:37;98313.28;;;-145.95;44.37
37648;BME280;23490;53.656;10.076;2023-04-30T08:53:03;98360.78;;;-145.95;42.76
37648;BME280;23490;53.656;10.076;2023-04-30T08:55:28;98435.09;;;-145.95;44.49
37648;BME280;23490;53.656;10.076;2023-04-30T08:57:54;98228.66;;;-145.95;43.13
37648;BME280;23490;53.656;10.076;2023-04-30T09:00:20;98278.19;;;-145.95;44.51
37648;BME280;23490;53.656;10.076;2023-04-30T09:02:48;98305.03;;;-145.95;45.04
37648;BME280;23490;53.656;10.076;2023-04-30T09:05:14;98315.38;;;-145.95;45.34
37648;BME280;23490;53.656;10.076;2023-04-30T09:07:44;98416.53;;;-145.95;43.96
37648;BME280;23490;53.656;10.076;2023-04-30T09:10:20;98389.69;;;-145.95;43.38
37648;BME280;23490;53.656;10.076;2023-04-30T09:13:01;98282.31;;;-145.95;43.95
37648;BME280;23490;53.656;10.076;2023-04-30T09:15:28;98210.06;;;-145.95;42.10
37648;BME280;23490;53.656;10.076;2023-04-30T09:18:15;97842.59;;;-145.95;38.31
37648;BME280;23490;53.656;10.076;2023-04-30T09:20:59;97803.38;;;-145.95;38.12
37648;BME280;23490;53.656;10.076;2023-04-30T09:23:26;97972.66;;;-145.95;39.15
37648;BME280;23490;53.656;10.076;2023-04-30T09:25:52;98129.56;;;-145.95;39.67
37648;BME280;23490;53.656;10.076;2023-04-30T09:28:18;98154.31;;;-145.95;40.69
37648;BME280;23490;53.656;10.076;2023-04-30T09:30:48;97807.53;;;-145.95;37.93
37648;BME280;23490;53.656;10.076;2023-04-30T09:33:14;97718.75;;;-145.95;36.50
37648;BME280;23490;53.656;10.076;2023-04-30T09:35:39;98121.28;;;-145.95;40.27
37648;BME280;23490;53.656;10.076;2023-04-30T09:38:30;97947.88;;;-145.95;38.11
37648;BME280;23490;53.656;10.076;2023-04-30T09:41:00;97714.63;;;-145.95;37.76
37648;BME280;23490;53.656;10.076;2023-04-30T09:43:29;97551.56;;;-145.95;35.50
37648;BME280;23490;53.656;10.076;2023-04-30T09:45:57;97650.63;;;-145.95;36.00
37648;BME280;23490;53.656;10.076;2023-04-30T09:48:24;97394.69;;;-145.95;33.82
37648;BME280;23490;53.656;10.076;2023-04-30T09:50:53;97535.03;;;-145.95;33.58
37648;BME280;23490;53.656;10.076;2023-04-30T09:53:19;97386.44;;;-145.95;35.06
37648;BME280;23490;53.656;10.076;2023-04-30T09:55:47;97407.06;;;-145.95;33.66
37648;BME280;23490;53.656;10.076;2023-04-30T09:58:13;97609.34;;;-145.95;34.52
37648;BME280;23490;53.656;10.076;2023-04-30T10:00:41;97394.69;;;-145.95;34.78
37648;BME280;23490;53.656;10.076;2023-04-30T10:03:13;97448.34;;;-145.95;34.80
37648;BME280;23490;53.656;10.076;2023-04-30T10:05:44;97402.94;;;-145.95;33.77
37648;BME280;23490;53.656;10.076;2023-04-30T10:11:07;97737.34;;;-145.95;36.72
37648;BME280;23490;53.656;10.076;2023-04-30T10:13:37;97877.69;;;-145.95;38.14
37648;BME280;23490;53.656;10.076;2023-04-30T10:16:28;97328.66;;;-145.95;33.34
37648;BME280;23490;53.656;10.076;2023-04-30T10:18:57;97246.09;;;-145.95;32.76
37648;BME280;23490;53.656;10.076;2023-04-30T10:21:25;97819.91;;;-145.95;34.89
37648;BME280;23490;53.656;10.076;2023-04-30T10:23:52;97778.63;;;-145.95;39.13
37648;BME280;23490;53.656;10.076;2023-04-30T10:26:18;97454.56;;;-145.95;34.98
37648;BME280;23490;53.656;10.076;2023-04-30T10:28:44;97568.06;;;-145.95;34.35
37648;BME280;23490;53.656;10.076;2023-04-30T10:31:11;97256.41;;;-145.95;34.00
37648;BME280;23490;53.656;10.076;2023-04-30T10:33:45;97270.84;;;-145.95;35.40
37648;BME280;23490;53.656;10.076;2023-04-30T10:36:23;97696.06;;;-145.95;36.79
37648;BME280;23490;53.656;10.076;2023-04-30T10:38:52;97089.22;;;-145.95;33.09
37648;BME280;23490;53.656;10.076;2023-04-30T10:41:18;96953.03;;;-145.95;31.33
37648;BME280;23490;53.656;10.076;2023-04-30T10:43:45;97588.72;;;-145.95;36.34
37648;BME280;23490;53.656;10.076;2023-04-30T10:46:21;97357.53;;;-145.95;34.36
37648;BME280;23490;53.656;10.076;2023-04-30T10:48:48;97281.16;;;-145.95;32.59
37648;BME280;23490;53.656;10.076;2023-04-30T10:51:13;97244.03;;;-145.95;33.28
37648;BME280;23490;53.656;10.076;2023-04-30T10:53:41;96829.19;;;-145.95;31.20
37648;BME280;23490;53.656;10.076;2023-04-30T10:56:09;97291.50;;;-145.95;33.27
37648;BME280;23490;53.656;10.076;2023-04-30T10:58:39;97126.38;;;-145.95;32.46
37648;BME280;23490;53.656;10.076;2023-04-30T11:01:09;97262.59;;;-145.95;33.59
37648;BME280;23490;53.656;10.076;2023-04-30T11:04:02;97361.66;;;-145.95;33.59
37648;BME280;23490;53.656;10.076;2023-04-30T11:06:48;96948.91;;;-145.95;31.65
37648;BME280;23490;53.656;10.076;2023-04-30T11:09:14;97555.69;;;-145.95;34.76
37648;BME280;23490;53.656;10.076;2023-04-30T11:11:43;97687.78;;;-145.95;37.79
37648;BME280;23490;53.656;10.076;2023-04-30T11:14:10;97479.31;;;-145.95;35.77
37648;BME280;23490;53.656;10.076;2023-04-30T11:16:38;97402.94;;;-145.95;34.32
37648;BME280;23490;53.656;10.076;2023-04-30T11:19:12;97456.63;;;-145.95;33.57
37648;BME280;23490;53.656;10.076;2023-04-30T11:27:25;96787.94;;;-145.95;30.53
37648;BME280;23490;53.656;10.076;2023-04-30T11:29:52;97118.13;;;-145.95;32.09
37648;BME280;23490;53.656;10.076;2023-04-30T11:32:19;96790.00;;;-145.95;30.28
37648;BME280;23490;53.656;10.076;2023-04-30T11:34:47;96973.66;;;-145.95;30.34
37648;BME280;23490;53.656;10.076;2023-04-30T11:37:18;96998.41;;;-145.95;31.89
37648;BME280;23490;53.656;10.076;2023-04-30T11:39:45;96779.66;;;-145.95;31.38
37648;BME280;23490;53.656;10.076;2023-04-30T11:42:17;96754.91;;;-145.95;32.22
37648;BME280;23490;53.656;10.076;2023-04-30T11:44:43;96870.47;;;-145.95;31.11
37648;BME280;23490;53.656;10.076;2023-04-30T11:47:08;96606.31;;;-145.95;31.29
37648;BME280;23490;53.656;10.076;2023-04-30T11:49:34;96796.19;;;-145.95;30.68
37648;BME280;23490;53.656;10.076;2023-04-30T11:51:59;96633.16;;;-145.95;30.11
37648;BME280;23490;53.656;10.076;2023-04-30T11:54:25;97134.63;;;-145.95;33.68
37648;BME280;23490;53.656;10.076;2023-04-30T11:56:52;96589.81;;;-145.95;30.39
37648;BME280;23490;53.656;10.076;2023-04-30T11:59:18;96329.81;;;-145.95;28.72
37648;BME280;23490;53.656;10.076;2023-04-30T12:01:43;96853.97;;;-145.95;30.90
37648;BME280;23490;53.656;10.076;2023-04-30T12:04:09;96439.19;;;-145.95;29.72
37648;BME280;23490;53.656;10.076;2023-04-30T12:06:39;97254.34;;;-145.95;32.94
37648;BME280;23490;53.656;10.076;2023-04-30T12:09:06;97241.97;;;-145.95;32.66
37648;BME280;23490;53.656;10.076;2023-04-30T12:11:34;97029.38;;;-145.95;32.06
37648;BME280;23490;53.656;10.076;2023-04-30T12:14:06;96709.50;;;-145.95;31.87
37648;BME280;23490;53.656;10.076;2023-04-30T12:16:53;96305.06;;;-145.95;30.23
37648;BME280;23490;53.656;10.076;2023-04-30T12:19:20;96230.78;;;-145.95;29.46
37648;BME280;23490;53.656;10.076;2023-04-30T12:21:47;96292.69;;;-145.95;30.05
37648;BME280;23490;53.656;10.076;2023-04-30T12:24:14;96305.06;;;-145.95;30.08
37648;BME280;23490;53.656;10.076;2023-04-30T12:26:41;96300.94;;;-145.95;30.35
37648;BME280;23490;53.656;10.076;2023-04-30T12:29:17;96860.16;;;-145.95;32.79
37648;BME280;23490;53.656;10.076;2023-04-30T12:31:44;96932.38;;;-145.95;32.91
37648;BME280;23490;53.656;10.076;2023-04-30T12:34:12;96684.75;;;-145.95;32.20
37648;BME280;23490;53.656;10.076;2023-04-30T12:36:38;96858.09;;;-145.95;32.76
37648;BME280;23490;53.656;10.076;2023-04-30T12:39:08;96721.88;;;-145.95;31.50
37648;BME280;23490;53.656;10.076;2023-04-30T12:41:36;96746.66;;;-145.95;32.69
37648;BME280;23490;53.656;10.076;2023-04-30T12:44:19;96563.00;;;-145.95;32.62
37648;BME280;23490;53.656;10.076;2023-04-30T12:46:47;96057.47;;;-145.95;29.85
37648;BME280;23490;53.656;10.076;2023-04-30T12:49:26;96082.22;;;-145.95;29.93
37648;BME280;23490;53.656;10.076;2023-04-30T12:51:57;95970.81;;;-145.95;28.97
37648;BME280;23490;53.656;10.076;2023-04-30T12:54:28;96053.34;;;-145.95;29.19